Time;durP1;ratioP1;P1;durP2;ratioP2;P2;SDS_P1;SDS_P2;PMS_P1;PMS_P2;Temp;Humidity;BMP_temperature;BMP_pressure;BME280_temperature;BME280_humidity;BME280_pressure;Samples;Min_cycle;Max_cycle;Signal;HPM_P1;HPM_P2
2024/02/08 00:00:22;;;;;;;38.07;16.53;;;0.40;99.90;;;;;;4416744;28;658626;-70
2024/02/08 00:03:11;;;;;;;49.67;19.83;;;0.40;99.90;;;;;;4415708;28;659422;-71
2024/02/08 00:05:59;;;;;;;26.40;11.30;;;0.40;99.90;;;;;;4411274;28;658719;-71
2024/02/08 00:08:46;;;;;;;23.50;9.47;;;0.40;99.90;;;;;;4440447;28;658863;-71
2024/02/08 00:11:33;;;;;;;7.70;3.80;;;0.30;99.90;;;;;;4418482;28;658067;-71
2024/02/08 00:14:23;;;;;;;36.33;15.10;;;0.40;99.90;;;;;;4440147;28;656980;-70
2024/02/08 00:17:12;;;;;;;22.60;7.77;;;0.30;99.90;;;;;;4409520;28;659803;-70
2024/02/08 00:19:59;;;;;;;45.43;16.67;;;0.30;99.90;;;;;;4409866;28;659377;-71
2024/02/08 00:22:49;;;;;;;56.47;19.77;;;0.30;99.90;;;;;;4436016;28;658773;-70
2024/02/08 00:25:36;;;;;;;58.67;22.53;;;0.30;99.90;;;;;;4395981;28;658549;-71
2024/02/08 00:28:24;;;;;;;54.10;23.33;;;0.30;99.90;;;;;;4419174;28;658837;-70
2024/02/08 00:31:11;;;;;;;60.13;25.10;;;0.30;99.90;;;;;;4438515;28;659234;-70
2024/02/08 00:34:00;;;;;;;33.03;12.80;;;0.20;99.90;;;;;;4409790;28;658812;-71
2024/02/08 00:36:49;;;;;;;52.30;15.93;;;0.30;99.90;;;;;;4415239;28;658568;-71
2024/02/08 00:39:40;;;;;;;72.00;27.87;;;0.40;99.90;;;;;;4429805;28;659432;-70
2024/02/08 00:42:27;;;;;;;46.83;19.83;;;0.30;99.90;;;;;;4413781;28;659026;-71
2024/02/08 00:45:15;;;;;;;56.13;19.20;;;0.30;99.90;;;;;;4410738;28;659472;-70
2024/02/08 00:48:04;;;;;;;15.90;7.20;;;0.30;99.90;;;;;;4415605;28;658718;-70
2024/02/08 00:50:54;;;;;;;57.73;22.53;;;0.30;99.90;;;;;;4442451;28;657924;-71
2024/02/08 00:53:43;;;;;;;60.43;24.13;;;0.30;99.90;;;;;;4408563;28;658438;-71
2024/02/08 00:56:30;;;;;;;75.23;26.73;;;0.30;99.90;;;;;;4412508;28;659654;-72
2024/02/08 00:59:17;;;;;;;52.87;21.10;;;0.30;99.90;;;;;;4419871;28;659220;-71
2024/02/08 01:02:05;;;;;;;37.87;15.90;;;0.40;99.90;;;;;;4427114;28;659988;-71
2024/02/08 01:04:53;;;;;;;49.37;19.23;;;0.40;99.90;;;;;;4418887;28;658656;-71
2024/02/08 01:07:41;;;;;;;40.93;14.53;;;0.30;99.90;;;;;;4439200;28;659471;-71
2024/02/08 01:10:28;;;;;;;55.30;21.77;;;0.30;99.90;;;;;;4416440;28;658725;-72
2024/02/08 01:13:17;;;;;;;49.72;18.90;;;0.30;99.90;;;;;;4434136;28;658833;-71
2024/02/08 01:16:05;;;;;;;39.30;14.43;;;0.30;99.90;;;;;;4408858;28;659965;-71
2024/02/08 01:18:52;;;;;;;45.73;14.27;;;0.30;99.90;;;;;;4408193;28;658331;-71
2024/02/08 01:21:40;;;;;;;49.93;18.53;;;0.40;99.90;;;;;;4437774;28;659501;-70
2024/02/08 01:24:29;;;;;;;34.87;13.50;;;0.40;99.90;;;;;;4426016;28;658757;-71
2024/02/08 01:27:20;;;;;;;48.90;17.30;;;0.30;99.90;;;;;;4430385;28;658995;-71
2024/02/08 01:30:08;;;;;;;52.37;19.67;;;0.30;99.90;;;;;;4400932;28;658843;-72
2024/02/08 01:32:56;;;;;;;48.15;18.77;;;0.30;99.90;;;;;;4428627;28;658954;-71
2024/02/08 01:35:43;;;;;;;53.73;21.80;;;0.30;99.90;;;;;;4405130;28;658673;-71
2024/02/08 01:38:30;;;;;;;5.97;3.63;;;0.30;99.90;;;;;;4434396;28;658386;-71
2024/02/08 01:41:19;;;;;;;45.33;17.97;;;0.40;99.90;;;;;;4420448;28;656274;-72
2024/02/08 01:44:07;;;;;;;39.37;17.50;;;0.40;99.90;;;;;;4435180;28;658992;-75
2024/02/08 01:46:54;;;;;;;40.40;16.63;;;0.30;99.90;;;;;;4414640;28;658864;-71
2024/02/08 01:49:44;;;;;;;17.00;7.37;;;0.30;99.90;;;;;;4424784;28;659058;-71
2024/02/08 01:52:31;;;;;;;42.83;18.37;;;0.30;99.90;;;;;;4387212;28;658325;-71
2024/02/08 01:55:20;;;;;;;41.47;15.10;;;0.30;99.90;;;;;;4416073;28;658801;-71
2024/02/08 01:58:09;;;;;;;37.83;15.07;;;0.40;99.90;;;;;;4417232;28;659565;-72
2024/02/08 02:00:56;;;;;;;47.20;19.73;;;0.30;99.90;;;;;;4431739;28;658712;-72
2024/02/08 02:03:46;;;;;;;38.03;16.83;;;0.30;99.90;;;;;;4420242;28;658725;-72
2024/02/08 02:06:35;;;;;;;35.10;15.07;;;0.30;99.90;;;;;;4415974;28;658755;-72
2024/02/08 02:09:24;;;;;;;36.20;14.93;;;0.30;99.90;;;;;;4438757;28;659460;-72
2024/02/08 02:12:15;;;;;;;49.30;18.90;;;0.30;99.90;;;;;;4428084;28;658995;-70
2024/02/08 02:15:05;;;;;;;39.30;16.37;;;0.30;99.90;;;;;;4393779;28;659374;-72
2024/02/08 02:17:52;;;;;;;25.83;11.10;;;0.30;99.90;;;;;;4426529;28;658816;-73
2024/02/08 02:20:39;;;;;;;45.87;17.87;;;0.40;99.90;;;;;;4415377;28;659433;-70
2024/02/08 02:23:28;;;;;;;40.80;17.23;;;0.30;99.90;;;;;;4434050;28;658397;-71
2024/02/08 02:26:15;;;;;;;31.53;13.83;;;0.30;99.90;;;;;;4396683;28;659773;-71
2024/02/08 02:29:03;;;;;;;33.70;13.53;;;0.20;99.90;;;;;;4424011;28;659077;-72
2024/02/08 02:31:50;;;;;;;36.70;14.10;;;0.30;99.90;;;;;;4432591;28;659129;-71
2024/02/08 02:34:38;;;;;;;38.90;15.43;;;0.30;99.90;;;;;;4413065;28;658400;-72
2024/02/08 02:37:26;;;;;;;32.67;14.57;;;0.30;99.90;;;;;;4445582;28;660084;-71
2024/02/08 02:40:22;;;;;;;34.97;14.07;;;0.30;99.90;;;;;;4409264;28;658752;-72
2024/02/08 02:43:11;;;;;;;35.73;15.37;;;0.30;99.90;;;;;;4412693;28;660986;-71
2024/02/08 02:45:58;;;;;;;12.83;6.27;;;0.30;99.90;;;;;;4396988;28;658856;-71
2024/02/08 02:48:46;;;;;;;27.53;10.23;;;0.40;99.90;;;;;;4427090;28;658883;-71
2024/02/08 02:51:33;;;;;;;40.13;17.47;;;0.30;99.90;;;;;;4403291;28;658036;-72
2024/02/08 02:54:23;;;;;;;27.27;11.63;;;0.30;99.90;;;;;;4434047;28;659427;-72
2024/02/08 02:57:11;;;;;;;38.90;14.67;;;0.30;99.90;;;;;;4440439;28;659396;-71
2024/02/08 02:59:59;;;;;;;21.93;7.93;;;0.20;99.90;;;;;;4406905;28;659234;-71
2024/02/08 03:02:48;;;;;;;27.17;10.53;;;0.30;99.90;;;;;;4421223;28;657156;-71
2024/02/08 03:05:35;;;;;;;40.00;15.60;;;0.30;99.90;;;;;;4412046;28;659259;-72
2024/02/08 03:08:24;;;;;;;46.10;17.25;;;0.20;99.90;;;;;;4408267;28;659097;-72
2024/02/08 03:11:12;;;;;;;29.07;11.20;;;0.20;99.90;;;;;;4428063;28;658757;-72
2024/02/08 03:14:04;;;;;;;15.00;6.10;;;0.30;99.90;;;;;;4413121;28;659575;-71
2024/02/08 03:16:51;;;;;;;42.10;16.40;;;0.30;99.90;;;;;;4405736;28;657780;-72
2024/02/08 03:19:39;;;;;;;49.83;19.90;;;0.30;99.90;;;;;;4402633;28;658376;-72
2024/02/08 03:22:26;;;;;;;24.03;9.30;;;0.20;99.90;;;;;;4434591;28;658594;-72
2024/02/08 03:25:14;;;;;;;39.57;18.87;;;0.30;99.90;;;;;;4415454;28;657548;-72
2024/02/08 03:28:04;;;;;;;41.00;17.13;;;0.20;99.90;;;;;;4431912;28;658633;-71
2024/02/08 03:30:55;;;;;;;35.50;15.27;;;0.30;99.90;;;;;;4410865;28;658917;-71
2024/02/08 03:33:43;;;;;;;50.07;19.53;;;0.30;99.90;;;;;;4379587;28;658863;-72
2024/02/08 03:36:31;;;;;;;44.40;15.18;;;0.30;99.90;;;;;;4441546;28;659636;-72
2024/02/08 03:39:25;;;;;;;32.73;14.10;;;0.20;99.90;;;;;;4417824;28;659022;-72
2024/02/08 03:42:14;;;;;;;44.55;19.63;;;0.20;99.90;;;;;;4408412;28;658909;-72
2024/02/08 03:45:01;;;;;;;41.50;15.47;;;0.20;99.90;;;;;;4437705;28;659079;-72
2024/02/08 03:47:50;;;;;;;39.63;15.60;;;0.30;99.90;;;;;;4410652;28;658401;-72
2024/02/08 03:50:39;;;;;;;26.87;10.87;;;0.30;99.90;;;;;;4430006;28;658499;-72
2024/02/08 03:53:26;;;;;;;16.50;7.47;;;0.30;99.90;;;;;;4428056;28;658431;-72
2024/02/08 03:56:15;;;;;;;36.47;15.73;;;0.30;99.90;;;;;;4412353;28;657513;-72
2024/02/08 03:59:07;;;;;;;38.80;15.27;;;0.30;99.90;;;;;;4412631;28;659172;-72
2024/02/08 04:02:00;;;;;;;37.70;13.13;;;0.30;99.90;;;;;;4410708;28;659914;-73
2024/02/08 04:04:53;;;;;;;10.00;3.27;;;0.20;99.90;;;;;;4410235;28;658891;-72
2024/02/08 04:54:09;;;;;;;39.70;16.10;;;0.30;99.90;;;;;;4421409;28;657676;-72
2024/02/08 04:56:59;;;;;;;38.93;15.03;;;0.20;99.90;;;;;;4403665;28;658874;-72
2024/02/08 04:59:46;;;;;;;41.90;14.77;;;0.20;99.90;;;;;;4418163;28;658355;-72
2024/02/08 05:02:33;;;;;;;48.37;18.20;;;0.30;99.90;;;;;;4413577;28;658471;-72
2024/02/08 05:05:21;;;;;;;50.83;16.37;;;0.30;99.90;;;;;;4428414;28;658980;-71
2024/02/08 05:08:09;;;;;;;45.07;15.60;;;0.30;99.90;;;;;;4407538;28;658570;-72
2024/02/08 05:10:56;;;;;;;51.95;17.48;;;0.30;99.90;;;;;;4432538;28;658601;-72
2024/02/08 05:13:49;;;;;;;47.47;17.97;;;0.30;99.90;;;;;;4404058;28;658878;-73
2024/02/08 05:16:39;;;;;;;48.30;17.10;;;0.20;99.90;;;;;;4404178;28;658603;-72
2024/02/08 05:19:26;;;;;;;37.97;12.67;;;0.30;99.90;;;;;;4404397;28;659015;-72
2024/02/08 05:22:14;;;;;;;48.43;16.83;;;0.30;99.90;;;;;;4405445;28;658143;-72
2024/02/08 05:25:02;;;;;;;62.67;21.50;;;0.20;99.90;;;;;;4430769;28;658941;-72
2024/02/08 05:27:50;;;;;;;50.47;16.87;;;0.20;99.90;;;;;;4410219;28;658756;-72
2024/02/08 05:30:38;;;;;;;48.10;17.83;;;0.20;99.90;;;;;;4406419;28;658502;-72
2024/02/08 05:33:29;;;;;;;55.23;19.13;;;0.20;99.90;;;;;;4425812;28;659261;-72
2024/02/08 05:36:17;;;;;;;40.77;14.00;;;0.20;99.90;;;;;;4407372;28;658704;-72
2024/02/08 05:39:04;;;;;;;56.97;17.90;;;0.20;99.90;;;;;;4405322;28;659974;-72
2024/02/08 05:41:53;;;;;;;48.50;17.77;;;0.20;99.90;;;;;;4424708;28;658508;-73
2024/02/08 05:44:41;;;;;;;49.70;17.87;;;0.20;99.90;;;;;;4411935;28;659044;-72
2024/02/08 05:47:28;;;;;;;45.37;15.17;;;0.30;99.90;;;;;;4411524;28;658099;-72
2024/02/08 05:50:21;;;;;;;47.75;16.48;;;0.30;99.90;;;;;;4439002;28;659032;-73
2024/02/08 05:53:08;;;;;;;60.70;19.47;;;0.20;99.90;;;;;;4382043;28;658961;-73
2024/02/08 05:55:59;;;;;;;37.77;14.37;;;0.20;99.90;;;;;;4418155;28;658825;-72
2024/02/08 05:58:51;;;;;;;49.77;18.03;;;0.30;99.90;;;;;;4408151;28;658986;-72
2024/02/08 06:01:44;;;;;;;44.17;16.20;;;0.30;99.90;;;;;;4411892;28;659561;-72
2024/02/08 06:04:35;;;;;;;48.80;16.67;;;0.30;99.90;;;;;;4408776;28;658759;-72
2024/02/08 06:07:23;;;;;;;47.17;17.30;;;0.40;99.90;;;;;;4421467;28;658626;-72
2024/02/08 06:10:13;;;;;;;46.03;17.00;;;0.40;99.90;;;;;;4422179;28;659065;-72
2024/02/08 06:13:01;;;;;;;50.53;16.50;;;0.40;99.90;;;;;;4413478;28;658865;-72
2024/02/08 06:16:00;;;;;;;45.90;16.95;;;0.40;99.90;;;;;;4412924;28;658787;-72
2024/02/08 06:18:47;;;;;;;44.30;17.25;;;0.40;99.90;;;;;;4408091;28;658189;-72
2024/02/08 06:21:40;;;;;;;53.60;17.83;;;0.40;99.90;;;;;;4428521;28;660096;-72
2024/02/08 06:24:32;;;;;;;48.30;16.17;;;0.40;99.90;;;;;;4383530;28;658520;-72
2024/02/08 06:27:25;;;;;;;48.57;17.77;;;0.40;99.90;;;;;;4410707;28;659169;-72
2024/02/08 06:30:18;;;;;;;45.73;17.07;;;0.40;99.90;;;;;;4407197;28;659685;-73
2024/02/08 06:33:16;;;;;;;41.60;16.80;;;0.40;99.90;;;;;;4414086;28;658792;-72
2024/02/08 06:36:07;;;;;;;50.30;16.03;;;0.40;99.90;;;;;;4408903;28;658712;-72
2024/02/08 06:38:55;;;;;;;53.30;17.33;;;0.50;99.90;;;;;;4415472;28;658770;-72
2024/02/08 06:41:52;;;;;;;40.97;15.20;;;0.50;99.90;;;;;;4433786;28;658294;-72
2024/02/08 06:44:57;;;;;;;45.33;16.90;;;0.60;99.90;;;;;;4410461;28;658653;-72
2024/02/08 06:48:14;;;;;;;40.57;15.57;;;0.50;99.90;;;;;;4418582;28;659155;-72
2024/02/08 07:37:18;;;;;;;45.97;17.77;;;1.00;99.90;;;;;;4418969;28;658436;-72
2024/02/08 07:40:23;;;;;;;45.20;18.67;;;1.10;99.90;;;;;;4414845;28;659686;-72
2024/02/08 07:43:20;;;;;;;41.93;18.03;;;1.20;99.90;;;;;;4416034;28;659485;-72
2024/02/08 07:46:16;;;;;;;55.60;23.70;;;1.30;99.90;;;;;;4392601;28;658423;-72
2024/02/08 07:49:04;;;;;;;47.97;19.17;;;1.30;99.90;;;;;;4409951;28;658390;-72
2024/02/08 07:51:58;;;;;;;47.90;19.53;;;1.40;99.90;;;;;;4442154;28;659744;-71
2024/02/08 07:54:50;;;;;;;44.80;17.77;;;1.30;99.90;;;;;;4420052;28;658611;-72
2024/02/08 07:57:37;;;;;;;37.40;17.20;;;1.50;99.90;;;;;;4404253;28;658839;-73
2024/02/08 08:00:41;;;;;;;44.90;19.07;;;1.60;99.90;;;;;;4434568;28;658572;-72
2024/02/08 08:03:32;;;;;;;59.13;21.87;;;1.70;99.90;;;;;;4385357;28;659924;-72
2024/02/08 08:06:22;;;;;;;88.00;33.50;;;1.80;99.90;;;;;;4424211;28;658336;-72
2024/02/08 08:09:19;;;;;;;89.60;32.23;;;1.90;99.90;;;;;;4410089;28;659451;-72
2024/02/08 08:12:08;;;;;;;68.23;25.20;;;2.00;99.90;;;;;;4397569;28;658639;-72
2024/02/08 08:15:13;;;;;;;77.27;29.83;;;1.90;99.90;;;;;;4418807;28;659326;-72
2024/02/08 08:18:00;;;;;;;75.40;27.67;;;2.00;99.90;;;;;;4401329;28;659352;-72
2024/02/08 08:20:56;;;;;;;116.93;39.80;;;2.20;99.90;;;;;;4413790;28;658644;-72
2024/02/08 08:23:59;;;;;;;84.47;32.30;;;2.30;99.90;;;;;;4388441;28;659703;-72
2024/02/08 08:26:46;;;;;;;80.10;32.37;;;2.50;99.90;;;;;;4416915;28;658720;-72
2024/02/08 08:29:42;;;;;;;140.37;39.40;;;2.70;99.90;;;;;;4410846;28;658742;-71
2024/02/08 08:35:47;;;;;;;49.90;21.47;;;2.80;99.90;;;;;;4375556;28;660429;-71
2024/02/08 08:38:44;;;;;;;58.53;23.30;;;3.00;99.90;;;;;;4395202;28;658640;-72
2024/02/08 08:41:31;;;;;;;67.07;25.20;;;2.90;99.90;;;;;;4405717;28;658748;-72
2024/02/08 08:44:19;;;;;;;59.43;19.07;;;2.90;99.90;;;;;;4406274;28;658728;-71
2024/02/08 08:47:07;;;;;;;33.60;16.07;;;3.10;99.90;;;;;;4417795;28;658764;-71
2024/02/08 08:49:55;;;;;;;28.80;15.33;;;3.20;99.90;;;;;;4404791;28;658757;-72
2024/02/08 08:52:47;;;;;;;36.30;15.93;;;3.20;99.90;;;;;;4434692;28;658244;-71
2024/02/08 08:55:48;;;;;;;33.87;15.43;;;3.00;99.90;;;;;;4400925;28;658752;-72
2024/02/08 08:58:39;;;;;;;35.10;16.27;;;2.90;99.90;;;;;;4406506;28;659895;-72
2024/02/08 09:01:26;;;;;;;37.00;17.50;;;2.90;99.90;;;;;;4415105;28;659220;-72
2024/02/08 09:04:25;;;;;;;36.13;17.77;;;3.00;99.90;;;;;;4415361;28;658806;-72
2024/02/08 09:07:12;;;;;;;41.43;19.60;;;3.00;99.90;;;;;;4401054;28;658747;-72
2024/02/08 09:10:01;;;;;;;55.83;21.03;;;3.10;99.90;;;;;;4424814;28;658825;-72
2024/02/08 09:13:00;;;;;;;37.58;16.05;;;3.20;99.90;;;;;;4403030;28;658492;-72
2024/02/08 09:15:55;;;;;;;30.53;13.37;;;3.30;99.90;;;;;;4403212;28;659865;-72
2024/02/08 09:19:03;;;;;;;33.83;13.40;;;2.90;99.90;;;;;;4382759;28;660098;-72
2024/02/08 09:21:52;;;;;;;30.00;12.60;;;2.90;99.90;;;;;;4389209;28;659020;-72
2024/02/08 09:24:44;;;;;;;31.67;12.77;;;2.70;99.90;;;;;;4394909;28;658914;-72
2024/02/08 09:27:34;;;;;;;30.57;11.97;;;2.80;99.90;;;;;;4408711;28;658804;-71
2024/02/08 09:30:37;;;;;;;47.03;18.97;;;2.90;99.90;;;;;;4419671;28;659056;-71
2024/02/08 09:33:44;;;;;;;27.52;11.85;;;2.70;99.90;;;;;;4377601;28;659213;-71
2024/02/08 09:36:34;;;;;;;25.73;11.70;;;2.70;99.90;;;;;;4413270;28;659433;-71
2024/02/08 09:39:48;;;;;;;31.23;12.63;;;2.80;99.90;;;;;;4411369;28;659670;-72
2024/02/08 09:42:30;;;;;;;29.43;13.63;;;2.80;99.90;;;;;;4391220;28;659304;-71
2024/02/08 09:45:42;;;;;;;42.87;15.33;;;2.90;99.90;;;;;;4422245;28;658721;-72
2024/02/08 09:48:26;;;;;;;41.58;14.18;;;2.90;99.90;;;;;;4401231;28;658853;-72
2024/02/08 09:51:23;;;;;;;29.27;13.90;;;3.10;99.90;;;;;;4405170;28;659466;-71
2024/02/08 09:54:16;;;;;;;33.73;14.07;;;2.90;99.90;;;;;;4413621;28;659022;-72
2024/02/08 09:57:21;;;;;;;31.57;13.60;;;2.80;99.90;;;;;;4383971;28;659655;-71
2024/02/08 10:00:34;;;;;;;34.27;15.40;;;2.80;99.90;;;;;;4383010;28;658756;-72
2024/02/08 10:03:31;;;;;;;36.70;14.20;;;3.00;99.90;;;;;;4412978;28;658502;-71
2024/02/08 10:06:24;;;;;;;37.13;14.37;;;2.80;99.90;;;;;;4409202;28;658698;-72
2024/02/08 10:12:20;;;;;;;34.27;13.77;;;2.80;99.90;;;;;;4396803;28;659412;-72
2024/02/08 10:15:14;;;;;;;32.50;14.20;;;3.00;99.90;;;;;;4427239;28;658418;-71
2024/02/08 10:18:10;;;;;;;27.30;12.23;;;3.10;99.90;;;;;;4402005;28;658471;-71
2024/02/08 10:21:12;;;;;;;35.70;14.43;;;3.10;99.90;;;;;;4427820;28;658650;-73
2024/02/08 10:23:59;;;;;;;27.27;12.40;;;3.20;99.90;;;;;;4406168;28;662440;-71
2024/02/08 10:26:46;;;;;;;29.20;12.20;;;3.20;99.90;;;;;;4417396;28;658485;-71
2024/02/08 10:29:35;;;;;;;28.57;13.43;;;2.90;99.90;;;;;;4408424;28;659486;-71
2024/02/08 10:32:27;;;;;;;27.00;11.13;;;2.80;99.90;;;;;;4421940;28;658611;-72
2024/02/08 10:35:14;;;;;;;27.07;11.90;;;2.90;99.90;;;;;;4407854;28;659355;-71
2024/02/08 10:38:08;;;;;;;25.90;10.90;;;2.90;99.90;;;;;;4433954;28;659158;-71
2024/02/08 10:40:56;;;;;;;27.10;12.37;;;2.90;99.90;;;;;;4390718;28;658954;-71
2024/02/08 10:43:52;;;;;;;27.23;12.40;;;2.80;99.90;;;;;;4407851;28;658744;-71
2024/02/08 10:46:42;;;;;;;26.43;10.73;;;2.80;99.90;;;;;;4412992;28;658462;-71
2024/02/08 10:49:35;;;;;;;52.23;15.37;;;2.70;99.90;;;;;;4410575;28;660259;-71
2024/02/08 10:52:23;;;;;;;25.00;10.40;;;2.70;99.90;;;;;;4412438;28;659068;-71
2024/02/08 10:55:18;;;;;;;24.77;10.87;;;2.80;99.90;;;;;;4424136;28;659158;-71
2024/02/08 10:58:26;;;;;;;38.20;14.37;;;2.70;99.90;;;;;;4402811;28;659415;-71
2024/02/08 11:01:32;;;;;;;19.73;10.10;;;2.60;99.90;;;;;;4391471;28;659861;-71
2024/02/08 11:04:28;;;;;;;20.77;9.20;;;2.60;99.90;;;;;;4414777;28;659467;-70
2024/02/08 11:07:33;;;;;;;23.50;10.67;;;2.40;99.90;;;;;;4408619;28;657611;-71
2024/02/08 11:10:23;;;;;;;23.40;10.73;;;2.40;99.90;;;;;;4413095;28;658994;-71
2024/02/08 11:13:12;;;;;;;26.23;11.50;;;2.60;99.90;;;;;;4414807;28;659772;-71
2024/02/08 11:16:06;;;;;;;24.50;11.23;;;2.80;99.90;;;;;;4411697;28;660331;-71
2024/02/08 11:18:54;;;;;;;24.27;11.83;;;2.80;99.90;;;;;;4406714;28;659580;-71
2024/02/08 11:21:43;;;;;;;30.30;11.77;;;2.80;99.90;;;;;;4430333;28;658549;-71
2024/02/08 11:24:38;;;;;;;22.13;10.90;;;2.90;99.90;;;;;;4411298;28;658536;-71
2024/02/08 11:27:27;;;;;;;27.37;12.47;;;3.10;99.90;;;;;;4415116;28;659403;-71
2024/02/08 11:30:19;;;;;;;22.35;10.63;;;3.10;99.90;;;;;;4414444;28;659420;-71
2024/02/08 11:33:12;;;;;;;24.00;10.87;;;3.20;99.90;;;;;;4394304;28;659558;-71
2024/02/08 11:36:11;;;;;;;23.47;10.10;;;3.10;99.90;;;;;;4410367;28;659569;-71
2024/02/08 11:39:26;;;;;;;27.63;12.30;;;2.90;99.90;;;;;;4412557;28;658730;-71
2024/02/08 11:42:16;;;;;;;28.80;11.97;;;2.90;99.90;;;;;;4378767;28;659318;-71
2024/02/08 11:45:08;;;;;;;22.33;10.40;;;2.70;99.90;;;;;;4387238;28;660141;-71
2024/02/08 11:47:58;;;;;;;25.10;10.13;;;2.80;99.90;;;;;;4417361;28;660102;-71
2024/02/08 11:50:47;;;;;;;23.40;10.93;;;2.60;99.90;;;;;;4415301;28;659651;-72
2024/02/08 11:53:34;;;;;;;26.67;12.27;;;2.70;99.90;;;;;;4413316;28;659019;-71
2024/02/08 11:56:29;;;;;;;25.30;11.80;;;2.80;99.90;;;;;;4436716;28;658296;-71
2024/02/08 11:59:16;;;;;;;25.73;11.60;;;2.60;99.90;;;;;;4413895;28;659309;-71
2024/02/08 12:02:07;;;;;;;29.07;12.17;;;2.60;99.90;;;;;;4410466;28;658561;-70
2024/02/08 12:04:55;;;;;;;21.70;10.53;;;2.60;99.90;;;;;;4403500;28;659860;-71
2024/02/08 12:07:45;;;;;;;24.50;11.23;;;2.60;99.90;;;;;;4423228;28;659456;-71
2024/02/08 12:10:32;;;;;;;30.37;11.17;;;2.50;99.90;;;;;;4420732;28;659018;-71
2024/02/08 12:13:25;;;;;;;25.50;11.13;;;2.40;99.90;;;;;;4431304;28;659146;-71
2024/02/08 12:16:15;;;;;;;29.67;10.90;;;2.40;99.90;;;;;;4402536;28;658645;-72
2024/02/08 12:19:06;;;;;;;29.58;10.80;;;2.50;99.90;;;;;;4418830;28;659026;-71
2024/02/08 12:21:56;;;;;;;25.70;11.03;;;2.50;99.90;;;;;;4412252;28;659266;-71
2024/02/08 12:24:43;;;;;;;23.03;11.27;;;2.40;99.90;;;;;;4404881;28;658575;-71
2024/02/08 12:27:31;;;;;;;23.40;10.53;;;2.40;99.90;;;;;;4431475;28;660398;-71
2024/02/08 12:30:22;;;;;;;25.17;11.17;;;2.40;99.90;;;;;;4414874;28;658525;-71
2024/02/08 12:33:09;;;;;;;24.23;10.33;;;2.40;99.90;;;;;;4415083;28;659048;-72
2024/02/08 12:35:58;;;;;;;25.77;11.47;;;2.40;99.90;;;;;;4423682;28;658465;-71
2024/02/08 12:38:46;;;;;;;32.83;13.20;;;2.40;99.90;;;;;;4415610;28;659148;-71
2024/02/08 12:41:38;;;;;;;29.73;12.13;;;2.30;99.90;;;;;;4417818;28;658830;-72
2024/02/08 12:44:26;;;;;;;19.43;9.87;;;2.30;99.90;;;;;;4399031;28;659304;-71
2024/02/08 12:47:17;;;;;;;33.03;13.13;;;2.40;99.90;;;;;;4413161;28;657604;-72
2024/02/08 12:50:09;;;;;;;27.73;13.50;;;2.40;99.90;;;;;;4419206;28;659658;-72
2024/02/08 12:52:57;;;;;;;36.03;16.10;;;2.30;99.90;;;;;;4414209;28;658714;-71
2024/02/08 12:55:46;;;;;;;37.40;18.10;;;2.20;99.90;;;;;;4415088;28;658588;-72
2024/02/08 12:58:34;;;;;;;49.17;20.20;;;2.20;99.90;;;;;;4411243;28;658936;-72
2024/02/08 13:01:21;;;;;;;45.10;18.93;;;2.20;99.90;;;;;;4436485;28;658487;-72
2024/02/08 13:04:14;;;;;;;46.10;19.17;;;2.10;99.90;;;;;;4415720;28;658999;-72
2024/02/08 13:07:01;;;;;;;45.07;22.87;;;2.10;99.90;;;;;;4415397;28;658835;-72
2024/02/08 13:10:01;;;;;;;35.80;16.23;;;1.90;99.90;;;;;;4415373;28;658577;-72
2024/02/08 13:12:58;;;;;;;32.93;15.37;;;2.00;99.90;;;;;;4411244;28;658832;-72
2024/02/08 13:15:45;;;;;;;39.28;16.58;;;2.00;99.90;;;;;;4411300;28;659378;-72
2024/02/08 13:18:33;;;;;;;36.57;16.93;;;2.00;99.90;;;;;;4398889;28;658687;-72
2024/02/08 13:21:24;;;;;;;35.97;17.13;;;2.00;99.90;;;;;;4416424;28;660152;-72
2024/02/08 13:24:11;;;;;;;33.27;14.50;;;2.00;99.90;;;;;;4410784;28;659042;-72
2024/02/08 13:27:02;;;;;;;32.87;14.90;;;1.90;99.90;;;;;;4412429;28;658739;-72
2024/02/08 13:29:51;;;;;;;36.67;14.38;;;1.80;99.90;;;;;;4406879;28;659006;-72
2024/02/08 13:32:38;;;;;;;35.07;16.00;;;1.80;99.90;;;;;;4396447;28;659220;-72
2024/02/08 13:35:26;;;;;;;43.43;18.03;;;1.80;99.90;;;;;;4434994;28;658642;-72
2024/02/08 13:38:15;;;;;;;32.17;14.10;;;1.90;99.90;;;;;;4412596;28;658522;-72
2024/02/08 13:41:05;;;;;;;30.67;13.57;;;1.90;99.90;;;;;;4437062;28;658527;-73
2024/02/08 13:43:52;;;;;;;37.43;15.07;;;1.90;99.90;;;;;;4415659;28;658346;-72
2024/02/08 13:46:40;;;;;;;41.90;17.13;;;1.90;99.90;;;;;;4441354;28;659423;-72
2024/02/08 13:49:29;;;;;;;42.70;16.97;;;2.00;99.90;;;;;;4426659;28;658681;-72
2024/02/08 13:52:17;;;;;;;57.20;20.97;;;1.90;99.90;;;;;;4432178;28;658941;-73
2024/02/08 13:55:08;;;;;;;58.90;21.53;;;2.00;99.90;;;;;;4413360;28;658931;-72
2024/02/08 13:58:00;;;;;;;46.80;18.37;;;2.00;99.90;;;;;;4406983;28;660072;-73
2024/02/08 14:00:47;;;;;;;54.67;19.33;;;2.00;99.90;;;;;;4402725;28;659072;-73
2024/02/08 14:03:35;;;;;;;50.03;20.30;;;2.00;99.90;;;;;;4433690;28;659751;-72
2024/02/08 14:06:23;;;;;;;42.47;18.20;;;2.00;99.90;;;;;;4430302;28;658452;-72
2024/02/08 14:09:20;;;;;;;38.13;16.30;;;1.90;99.90;;;;;;4442746;28;659228;-72
2024/02/08 14:12:09;;;;;;;34.83;16.27;;;1.90;99.90;;;;;;4397973;28;658967;-72
2024/02/08 14:14:57;;;;;;;30.17;14.73;;;1.90;99.90;;;;;;4445059;28;659001;-72
2024/02/08 14:17:54;;;;;;;33.53;14.87;;;1.90;99.90;;;;;;4407474;28;659189;-72
2024/02/08 14:20:43;;;;;;;27.17;13.10;;;1.90;99.90;;;;;;4395899;28;659318;-72
2024/02/08 14:23:31;;;;;;;33.50;15.67;;;1.90;99.90;;;;;;4409673;28;660032;-72
2024/02/08 14:26:40;;;;;;;26.20;12.37;;;1.80;99.90;;;;;;4403989;28;658687;-72
2024/02/08 14:29:29;;;;;;;26.53;12.33;;;1.80;99.90;;;;;;4377993;28;659001;-72
2024/02/08 14:32:17;;;;;;;28.40;12.33;;;1.80;99.90;;;;;;4433954;28;658319;-72
2024/02/08 14:35:16;;;;;;;28.67;11.47;;;1.90;99.90;;;;;;4407673;28;658826;-71
2024/02/08 14:38:05;;;;;;;26.93;11.97;;;2.00;99.90;;;;;;4384258;28;659018;-72
2024/02/08 14:40:53;;;;;;;23.23;11.33;;;1.80;99.90;;;;;;4408485;28;658688;-72
2024/02/08 14:43:46;;;;;;;28.70;13.93;;;1.80;99.90;;;;;;4425071;28;659043;-71
2024/02/08 14:46:35;;;;;;;30.65;13.48;;;1.80;99.90;;;;;;4390508;28;658792;-72
2024/02/08 14:49:24;;;;;;;21.33;10.50;;;1.80;99.90;;;;;;4407560;28;658614;-72
2024/02/08 14:52:14;;;;;;;36.83;15.07;;;1.90;99.90;;;;;;4417565;28;658816;-71
2024/02/08 14:55:10;;;;;;;24.57;11.87;;;1.80;99.90;;;;;;4408927;28;658626;-72
2024/02/08 14:57:59;;;;;;;22.30;11.47;;;1.80;99.90;;;;;;4433395;28;658516;-72
2024/02/08 15:00:57;;;;;;;22.40;11.17;;;1.70;99.90;;;;;;4434543;28;658553;-72
2024/02/08 15:03:49;;;;;;;26.00;12.77;;;1.70;99.90;;;;;;4413314;28;658786;-72
2024/02/08 15:06:42;;;;;;;27.48;11.75;;;1.70;99.90;;;;;;4410047;28;659139;-71
2024/02/08 15:12:41;;;;;;;24.77;11.40;;;1.60;99.90;;;;;;4415978;28;658691;-72
2024/02/08 15:15:33;;;;;;;25.07;12.17;;;1.70;99.90;;;;;;4383477;28;658880;-72
2024/02/08 15:18:30;;;;;;;39.23;18.00;;;1.70;99.90;;;;;;4403634;28;659116;-72
2024/02/08 15:21:23;;;;;;;30.97;14.07;;;1.70;99.90;;;;;;4437992;28;658362;-72
2024/02/08 15:24:21;;;;;;;26.37;13.13;;;1.70;99.90;;;;;;4402016;28;658893;-72
2024/02/08 15:27:18;;;;;;;25.33;12.37;;;1.70;99.90;;;;;;4380889;28;659128;-73
2024/02/08 15:30:10;;;;;;;18.17;9.07;;;1.70;99.90;;;;;;4416827;28;659209;-72
2024/02/08 15:33:16;;;;;;;20.17;10.10;;;1.70;99.90;;;;;;4391880;28;658175;-72
2024/02/08 15:36:10;;;;;;;18.08;9.50;;;1.80;99.90;;;;;;4383008;28;660303;-73
2024/02/08 15:39:25;;;;;;;20.50;10.03;;;1.70;99.90;;;;;;4398349;28;658594;-72
2024/02/08 15:42:10;;;;;;;21.50;11.35;;;1.70;99.90;;;;;;4387112;28;659221;-73
2024/02/08 15:44:58;;;;;;;26.80;11.90;;;1.60;99.90;;;;;;4419136;28;658784;-73
2024/02/08 15:50:47;;;;;;;32.37;13.53;;;1.70;99.90;;;;;;4411195;28;659181;-72
2024/02/08 15:53:48;;;;;;;31.30;14.53;;;1.60;99.90;;;;;;4404543;28;658156;-72
2024/02/08 15:56:38;;;;;;;41.43;17.40;;;1.70;99.90;;;;;;4417879;28;659049;-73
2024/02/08 15:59:27;;;;;;;37.40;16.63;;;1.70;99.90;;;;;;4411651;28;659438;-73
2024/02/08 16:02:13;;;;;;;31.73;14.67;;;1.60;99.90;;;;;;4419937;28;659568;-73
2024/02/08 16:05:13;;;;;;;31.83;13.03;;;1.50;99.90;;;;;;4417995;28;659433;-73
2024/02/08 16:08:05;;;;;;;25.43;12.47;;;1.60;99.90;;;;;;4409610;28;658757;-73
2024/02/08 16:10:52;;;;;;;25.30;12.20;;;1.50;99.90;;;;;;4420433;28;659027;-73
2024/02/08 16:13:52;;;;;;;28.93;13.43;;;1.60;99.90;;;;;;4417483;28;659401;-72